Time,TemperatureF,DewpointF,PressureIn,WindDirection,WindDirectionDegrees,WindSpeedMPH,WindSpeedGustMPH,Humidity,HourlyPrecipIn,Conditions,Clouds,dailyrainin,SolarRadiationWatts/m^2,SoftwareType,DateUTC
2013-03-09 00:01:00,52.0,47.7,29.51,South,177,3.0,4.0,85,0.00,,,0.00,0.0,meteohub,2013-03-09 06:01:00,
2013-03-09 00:06:00,51.8,47.7,29.51,South,177,7.0,7.0,86,0.00,,,0.00,0.0,meteohub,2013-03-09 06:06:00,
2013-03-09 00:11:00,52.0,47.8,29.51,South,178,5.0,8.0,86,0.00,,,0.00,0.0,meteohub,2013-03-09 06:11:00,
2013-03-09 00:16:00,52.0,47.7,29.52,South,177,7.0,8.0,85,0.00,,,0.00,0.0,meteohub,2013-03-09 06:16:00,
2013-03-09 00:22:00,52.0,47.8,29.52,South,180,9.0,10.0,86,0.00,,,0.00,0.0,meteohub,2013-03-09 06:22:00,
2013-03-09 00:27:00,52.0,47.8,29.51,South,179,8.0,12.0,86,0.00,,,0.00,0.0,meteohub,2013-03-09 06:27:00,
2013-03-09 00:32:00,51.8,47.7,29.51,South,179,7.0,12.0,86,0.00,,,0.00,0.0,meteohub,2013-03-09 06:32:00,
2013-03-09 00:37:00,51.8,47.7,29.51,South,186,8.0,12.0,86,0.00,,,0.00,0.0,meteohub,2013-03-09 06:37:00,
2013-03-09 00:42:00,51.8,47.7,29.50,South,186,10.0,12.0,86,0.00,,,0.00,0.0,meteohub,2013-03-09 06:42:00,
2013-03-09 00:47:00,51.6,47.5,29.49,South,180,6.0,12.0,86,0.00,,,0.00,0.0,meteohub,2013-03-09 06:47:00,
2013-03-09 00:52:00,51.8,47.7,29.50,South,182,10.0,12.0,86,0.00,,,0.00,0.0,meteohub,2013-03-09 06:52:00,
2013-03-09 00:57:00,51.6,47.5,29.49,SSW,192,7.0,12.0,86,0.00,,,0.00,0.0,meteohub,2013-03-09 06:57:00,
2013-03-09 01:02:00,51.6,47.5,29.49,SW,215,7.0,12.0,86,0.00,,,0.00,0.0,meteohub,2013-03-09 07:02:00,
2013-03-09 01:07:00,51.4,47.5,29.50,SW,227,8.0,12.0,86,0.00,,,0.00,0.0,meteohub,2013-03-09 07:07:00,
2013-03-09 01:12:00,51.3,47.5,29.50,SW,221,9.0,11.0,87,0.00,,,0.00,0.0,meteohub,2013-03-09 07:12:00,
2013-03-09 01:17:00,51.3,47.5,29.49,SW,217,9.0,10.0,87,0.00,,,0.00,0.0,meteohub,2013-03-09 07:17:00,
2013-03-09 01:22:00,51.3,47.3,29.49,SSW,209,7.0,10.0,86,0.00,,,0.00,0.0,meteohub,2013-03-09 07:22:00,
2013-03-09 01:27:00,51.3,47.3,29.49,SSW,209,7.0,10.0,86,0.00,,,0.00,0.0,meteohub,2013-03-09 07:27:00,
2013-03-09 01:32:00,50.9,47.1,29.48,SSW,209,7.0,10.0,87,0.00,,,0.00,0.0,meteohub,2013-03-09 07:32:00,
2013-03-09 01:37:00,50.7,46.9,29.48,SSW,209,4.0,10.0,87,0.00,,,0.00,0.0,meteohub,2013-03-09 07:37:00,
2013-03-09 01:42:00,50.7,47.3,29.48,SSW,209,5.0,8.0,88,0.00,,,0.00,0.0,meteohub,2013-03-09 07:42:00,
2013-03-09 01:47:00,50.5,47.1,29.47,SSW,209,1.0,7.0,88,0.00,,,0.00,0.0,meteohub,2013-03-09 07:47:00,
2013-03-09 01:52:00,50.5,47.5,29.48,SSW,209,5.0,7.0,89,0.00,,,0.00,0.0,meteohub,2013-03-09 07:52:00,
2013-03-09 01:57:00,50.7,47.7,29.49,SSW,207,8.0,8.0,89,0.00,,,0.00,0.0,meteohub,2013-03-09 07:57:00,
2013-03-09 02:02:00,51.1,47.7,29.48,SSW,205,10.0,10.0,88,0.00,,,0.00,0.0,meteohub,2013-03-09 08:02:00,
2013-03-09 02:07:00,51.3,47.5,29.48,SSW,201,8.0,11.0,87,0.00,,,0.00,0.0,meteohub,2013-03-09 08:07:00,
2013-03-09 02:12:00,51.3,47.5,29.47,SSW,200,6.0,11.0,87,0.00,,,0.00,0.0,meteohub,2013-03-09 08:12:00,
2013-03-09 02:17:00,51.1,47.7,29.47,SSW,200,5.0,11.0,88,0.00,,,0.00,0.0,meteohub,2013-03-09 08:17:00,
2013-03-09 02:22:00,50.7,47.3,29.47,SSW,197,6.0,9.0,88,0.00,,,0.00,0.0,meteohub,2013-03-09 08:22:00,
2013-03-09 02:27:00,50.9,47.5,29.47,SSW,194,5.0,7.0,88,0.00,,,0.00,0.0,meteohub,2013-03-09 08:27:00,
2013-03-09 02:32:00,51.1,47.7,29.47,South,186,5.0,7.0,88,0.00,,,0.00,0.0,meteohub,2013-03-09 08:32:00,
2013-03-09 02:37:00,51.3,48.2,29.46,South,172,7.0,8.0,89,0.00,,,0.00,0.0,meteohub,2013-03-09 08:37:00,
2013-03-09 02:42:00,51.3,48.2,29.45,South,174,6.0,9.0,89,0.00,,,0.00,0.0,meteohub,2013-03-09 08:42:00,
2013-03-09 02:47:00,51.3,48.2,29.45,South,175,6.0,10.0,89,0.00,,,0.00,0.0,meteohub,2013-03-09 08:47:00,
2013-03-09 02:52:00,51.1,48.0,29.44,South,175,7.0,10.0,89,0.00,,,0.00,0.0,meteohub,2013-03-09 08:52:00,
2013-03-09 02:57:00,51.1,48.0,29.44,South,177,9.0,10.0,89,0.00,,,0.00,0.0,meteohub,2013-03-09 08:57:00,
2013-03-09 03:02:00,51.1,48.0,29.44,South,187,9.0,10.0,89,0.00,,,0.00,0.0,meteohub,2013-03-09 09:02:00,
2013-03-09 03:07:00,51.3,48.2,29.44,SSW,196,11.0,12.0,89,0.00,,,0.00,0.0,meteohub,2013-03-09 09:07:00,
2013-03-09 03:12:00,51.3,48.2,29.44,SSW,196,9.0,12.0,89,0.00,,,0.00,0.0,meteohub,2013-03-09 09:12:00,
2013-03-09 03:17:00,51.3,48.2,29.44,SSW,196,9.0,12.0,89,0.00,,,0.00,0.0,meteohub,2013-03-09 09:17:00,
2013-03-09 03:22:00,51.3,48.2,29.44,SSW,194,7.0,12.0,89,0.00,,,0.00,0.0,meteohub,2013-03-09 09:22:00,
2013-03-09 03:27:00,51.3,48.4,29.44,SSW,192,11.0,12.0,90,0.00,,,0.00,0.0,meteohub,2013-03-09 09:27:00,
2013-03-09 03:32:00,51.4,48.6,29.44,South,185,10.0,12.0,90,0.00,,,0.00,0.0,meteohub,2013-03-09 09:32:00,
2013-03-09 03:37:00,51.3,48.4,29.43,South,182,8.0,13.0,90,0.00,,,0.00,0.0,meteohub,2013-03-09 09:37:00,
2013-03-09 03:42:00,51.1,48.2,29.42,South,182,8.0,13.0,90,0.00,,,0.00,0.0,meteohub,2013-03-09 09:42:00,
2013-03-09 03:47:00,50.9,48.0,29.42,South,181,7.0,13.0,90,0.00,,,0.00,0.0,meteohub,2013-03-09 09:47:00,
2013-03-09 03:52:00,50.7,48.2,29.42,South,182,8.0,10.0,91,0.00,,,0.00,0.0,meteohub,2013-03-09 09:52:00,
2013-03-09 03:57:00,50.9,48.4,29.42,South,184,9.0,11.0,91,0.00,,,0.00,0.0,meteohub,2013-03-09 09:57:00,
2013-03-09 04:02:00,50.9,48.4,29.42,South,184,9.0,11.0,91,0.00,,,0.00,0.0,meteohub,2013-03-09 10:02:00,
2013-03-09 04:07:00,50.9,48.4,29.41,South,181,10.0,11.0,91,0.00,,,0.00,0.0,meteohub,2013-03-09 10:07:00,
2013-03-09 04:12:00,50.9,48.4,29.42,South,186,8.0,11.0,91,0.00,,,0.00,0.0,meteohub,2013-03-09 10:12:00,
2013-03-09 04:17:00,50.7,48.2,29.41,South,187,5.0,11.0,91,0.00,,,0.00,0.0,meteohub,2013-03-09 10:17:00,
2013-03-09 04:22:00,50.5,48.0,29.41,South,187,2.0,11.0,91,0.00,,,0.00,0.0,meteohub,2013-03-09 10:22:00,
2013-03-09 04:27:00,50.4,47.8,29.41,South,187,3.0,10.0,91,0.00,,,0.00,0.0,meteohub,2013-03-09 10:27:00,
2013-03-09 04:32:00,50.2,48.0,29.41,South,171,4.0,8.0,92,0.00,,,0.00,0.0,meteohub,2013-03-09 10:32:00,
2013-03-09 04:37:00,50.0,47.8,29.41,South,171,7.0,8.0,92,0.00,,,0.00,0.0,meteohub,2013-03-09 10:37:00,
2013-03-09 04:42:00,49.8,47.7,29.41,South,175,8.0,9.0,92,0.00,,,0.00,0.0,meteohub,2013-03-09 10:42:00,
2013-03-09 04:47:00,50.2,48.0,29.41,SSW,192,10.0,12.0,92,0.00,,,0.00,0.0,meteohub,2013-03-09 10:47:00,
2013-03-09 04:52:00,50.4,48.2,29.41,SSW,195,10.0,13.0,92,0.01,,,0.01,0.0,meteohub,2013-03-09 10:52:00,
2013-03-09 04:57:00,50.4,48.2,29.41,SSW,196,12.0,14.0,92,0.01,,,0.01,0.0,meteohub,2013-03-09 10:57:00,
2013-03-09 05:02:00,50.5,48.0,29.41,SSW,194,10.0,14.0,91,0.01,,,0.01,0.0,meteohub,2013-03-09 11:02:00,
2013-03-09 05:07:00,50.5,48.0,29.41,SSW,196,13.0,16.0,91,0.01,,,0.01,0.0,meteohub,2013-03-09 11:07:00,
2013-03-09 05:12:00,50.9,48.0,29.41,SSW,199,11.0,17.0,90,0.01,,,0.01,0.0,meteohub,2013-03-09 11:12:00,
2013-03-09 05:17:00,51.1,47.7,29.39,SSW,198,10.0,18.0,88,0.01,,,0.01,0.0,meteohub,2013-03-09 11:17:00,
2013-03-09 05:22:00,50.9,47.5,29.41,SSW,204,11.0,18.0,88,0.01,,,0.01,0.0,meteohub,2013-03-09 11:22:00,
2013-03-09 05:27:00,50.7,46.9,29.41,SSW,197,12.0,17.0,87,0.01,,,0.01,0.0,meteohub,2013-03-09 11:27:00,
2013-03-09 05:32:00,50.5,47.1,29.42,SSW,195,11.0,15.0,88,0.01,,,0.01,0.0,meteohub,2013-03-09 11:32:00,
2013-03-09 05:37:00,50.7,47.3,29.41,South,190,12.0,16.0,88,0.01,,,0.01,0.0,meteohub,2013-03-09 11:37:00,
2013-03-09 05:42:00,51.1,47.7,29.40,South,189,12.0,16.0,88,0.01,,,0.01,0.0,meteohub,2013-03-09 11:42:00,
2013-03-09 05:47:00,51.1,47.7,29.39,South,182,8.0,16.0,88,0.01,,,0.01,0.0,meteohub,2013-03-09 11:47:00,
2013-03-09 05:52:00,50.7,47.3,29.39,South,183,10.0,16.0,88,0.00,,,0.01,0.0,meteohub,2013-03-09 11:52:00,
2013-03-09 05:57:00,50.4,46.9,29.39,South,182,9.0,16.0,88,0.00,,,0.01,0.0,meteohub,2013-03-09 11:57:00,
2013-03-09 06:02:00,50.0,46.6,29.39,South,182,9.0,16.0,88,0.00,,,0.01,0.0,meteohub,2013-03-09 12:02:00,
2013-03-09 06:07:00,49.6,46.2,29.40,South,180,9.0,14.0,88,0.00,,,0.01,0.0,meteohub,2013-03-09 12:07:00,
2013-03-09 06:12:00,49.5,46.4,29.39,South,180,9.0,14.0,89,0.00,,,0.01,0.0,meteohub,2013-03-09 12:12:00,
2013-03-09 06:17:00,49.5,46.4,29.39,South,181,9.0,14.0,89,0.00,,,0.01,0.0,meteohub,2013-03-09 12:17:00,
2013-03-09 06:22:00,49.6,46.6,29.39,South,179,6.0,14.0,89,0.00,,,0.01,0.0,meteohub,2013-03-09 12:22:00,
2013-03-09 06:27:00,49.5,46.4,29.40,South,182,10.0,14.0,89,0.00,,,0.01,0.0,meteohub,2013-03-09 12:27:00,
2013-03-09 06:32:00,49.6,46.6,29.40,South,182,9.0,14.0,89,0.00,,,0.01,0.0,meteohub,2013-03-09 12:32:00,
2013-03-09 06:37:00,50.2,46.8,29.40,South,185,14.0,16.0,88,0.00,,,0.01,0.0,meteohub,2013-03-09 12:37:00,
2013-03-09 06:42:00,50.4,46.6,29.40,South,186,14.0,19.0,87,0.00,,,0.01,0.0,meteohub,2013-03-09 12:42:00,
2013-03-09 06:47:00,50.5,46.6,29.39,South,189,18.0,20.0,86,0.00,,,0.01,0.0,meteohub,2013-03-09 12:47:00,
2013-03-09 06:52:00,50.5,46.6,29.39,South,184,16.0,20.0,86,0.00,,,0.01,0.0,meteohub,2013-03-09 12:52:00,
2013-03-09 06:57:00,50.4,46.4,29.39,South,180,13.0,20.0,86,0.00,,,0.01,0.0,meteohub,2013-03-09 12:57:00,
2013-03-09 07:02:00,50.2,46.2,29.38,South,178,10.0,18.0,86,0.00,,,0.01,0.0,meteohub,2013-03-09 13:02:00,
2013-03-09 07:07:00,50.2,46.4,29.38,South,186,14.0,18.0,87,0.00,,,0.01,0.0,meteohub,2013-03-09 13:07:00,
2013-03-09 07:12:00,50.2,46.2,29.38,South,189,17.0,17.0,86,0.00,,,0.01,5.0,meteohub,2013-03-09 13:12:00,
2013-03-09 07:17:00,50.7,45.7,29.38,South,185,13.0,20.0,83,0.00,,,0.01,9.0,meteohub,2013-03-09 13:17:00,
2013-03-09 07:22:00,50.9,45.3,29.38,South,186,17.0,23.0,81,0.00,,,0.01,14.0,meteohub,2013-03-09 13:22:00,
2013-03-09 07:27:00,50.7,45.1,29.37,South,180,14.0,23.0,81,0.00,,,0.01,21.0,meteohub,2013-03-09 13:27:00,
2013-03-09 07:32:00,50.7,44.8,29.37,South,183,20.0,23.0,80,0.00,,,0.01,26.0,meteohub,2013-03-09 13:32:00,
2013-03-09 07:37:00,50.7,44.1,29.38,South,181,23.0,23.0,78,0.00,,,0.01,26.0,meteohub,2013-03-09 13:37:00,
2013-03-09 07:43:00,51.1,44.4,29.38,South,188,17.0,27.0,78,0.00,,,0.01,47.0,meteohub,2013-03-09 13:43:00,
2013-03-09 07:48:00,51.1,44.4,29.37,South,188,22.0,27.0,78,0.00,,,0.01,49.0,meteohub,2013-03-09 13:48:00,
2013-03-09 07:53:00,51.3,44.6,29.37,South,184,20.0,27.0,78,0.00,,,0.01,51.0,meteohub,2013-03-09 13:53:00,
2013-03-09 07:58:00,51.4,44.4,29.38,South,190,22.0,27.0,77,0.00,,,0.01,105.0,meteohub,2013-03-09 13:58:00,
2013-03-09 08:03:00,51.6,43.9,29.38,South,190,19.0,28.0,75,0.00,,,0.01,91.0,meteohub,2013-03-09 14:03:00,
2013-03-09 08:08:00,51.8,43.3,29.37,South,190,21.0,30.0,73,0.00,,,0.01,142.0,meteohub,2013-03-09 14:08:00,
2013-03-09 08:13:00,52.0,43.2,29.37,SSW,196,21.0,30.0,72,0.00,,,0.01,190.0,meteohub,2013-03-09 14:13:00,
2013-03-09 08:18:00,52.0,43.2,29.37,SSW,196,25.0,31.0,72,0.00,,,0.01,44.0,meteohub,2013-03-09 14:18:00,
2013-03-09 08:23:00,51.6,43.0,29.37,South,188,23.0,31.0,72,0.00,,,0.01,206.0,meteohub,2013-03-09 14:23:00,
2013-03-09 08:28:00,51.6,43.0,29.37,SSW,196,23.0,29.0,72,0.00,,,0.01,227.0,meteohub,2013-03-09 14:28:00,
2013-03-09 08:33:00,51.6,43.0,29.37,South,191,23.0,29.0,72,0.00,,,0.01,54.0,meteohub,2013-03-09 14:33:00,
2013-03-09 08:38:00,51.8,43.3,29.37,SSW,198,24.0,29.0,73,0.00,,,0.01,269.0,meteohub,2013-03-09 14:38:00,
2013-03-09 08:43:00,52.2,43.3,29.37,SSW,199,20.0,28.0,72,0.00,,,0.01,288.0,meteohub,2013-03-09 14:43:00,
2013-03-09 08:48:00,52.3,43.2,29.36,SSW,201,20.0,28.0,71,0.00,,,0.01,306.0,meteohub,2013-03-09 14:48:00,
2013-03-09 08:53:00,52.9,43.0,29.37,SSW,204,24.0,30.0,69,0.00,,,0.01,323.0,meteohub,2013-03-09 14:53:00,
2013-03-09 08:58:00,53.2,43.0,29.37,SW,229,22.0,36.0,68,0.00,,,0.01,341.0,meteohub,2013-03-09 14:58:00,
2013-03-09 09:03:00,53.8,41.9,29.36,SSW,212,25.0,36.0,64,0.00,,,0.01,364.0,meteohub,2013-03-09 15:03:00,
2013-03-09 09:09:00,54.0,41.2,29.36,SSW,212,32.0,36.0,62,0.00,,,0.01,380.0,meteohub,2013-03-09 15:09:00,
2013-03-09 09:14:00,54.1,41.4,29.36,SSW,207,25.0,34.0,62,0.00,,,0.01,397.0,meteohub,2013-03-09 15:14:00,
2013-03-09 09:19:00,54.3,39.4,29.36,SSW,208,25.0,37.0,57,0.00,,,0.01,417.0,meteohub,2013-03-09 15:19:00,
2013-03-09 09:24:00,54.5,38.7,29.36,SW,229,39.0,39.0,55,0.00,,,0.01,434.0,meteohub,2013-03-09 15:24:00,
2013-03-09 09:29:00,54.3,38.5,29.36,SW,217,28.0,41.0,55,0.00,,,0.01,448.0,meteohub,2013-03-09 15:29:00,
2013-03-09 09:34:00,54.3,37.0,29.36,SW,226,27.0,41.0,52,0.00,,,0.01,464.0,meteohub,2013-03-09 15:34:00,
2013-03-09 09:39:00,54.3,37.9,29.35,SW,223,26.0,41.0,54,0.00,,,0.01,483.0,meteohub,2013-03-09 15:39:00,
2013-03-09 09:44:00,54.9,38.1,29.35,SW,218,23.0,38.0,53,0.00,,,0.01,501.0,meteohub,2013-03-09 15:44:00,
2013-03-09 09:49:00,54.9,37.6,29.35,SW,221,24.0,37.0,52,0.00,,,0.01,517.0,meteohub,2013-03-09 15:49:00,
2013-03-09 09:54:00,54.9,37.0,29.35,SW,217,28.0,35.0,51,0.00,,,0.01,531.0,meteohub,2013-03-09 15:54:00,
2013-03-09 09:59:00,55.4,37.0,29.35,SW,221,26.0,35.0,50,0.00,,,0.01,548.0,meteohub,2013-03-09 15:59:00,
2013-03-09 10:04:00,55.9,38.1,29.35,SW,219,30.0,33.0,51,0.00,,,0.01,563.0,meteohub,2013-03-09 16:04:00,
2013-03-09 10:09:00,56.5,37.6,29.34,SSW,210,13.0,33.0,49,0.00,,,0.01,578.0,meteohub,2013-03-09 16:09:00,
2013-03-09 10:14:00,56.7,38.3,29.34,SSW,202,25.0,32.0,50,0.00,,,0.01,592.0,meteohub,2013-03-09 16:14:00,
2013-03-09 10:19:00,57.4,35.1,29.34,SW,220,32.0,32.0,43,0.00,,,0.01,606.0,meteohub,2013-03-09 16:19:00,
2013-03-09 10:24:00,57.9,34.9,29.34,SSW,213,25.0,36.0,42,0.00,,,0.01,621.0,meteohub,2013-03-09 16:24:00,
2013-03-09 10:30:00,58.8,33.3,29.34,SW,217,31.0,36.0,38,0.00,,,0.01,638.0,meteohub,2013-03-09 16:30:00,
2013-03-09 10:35:00,59.2,31.5,29.34,SW,224,22.0,36.0,35,0.00,,,0.01,649.0,meteohub,2013-03-09 16:35:00,
2013-03-09 10:40:00,59.5,31.1,29.34,SW,217,28.0,37.0,34,0.00,,,0.01,661.0,meteohub,2013-03-09 16:40:00,
2013-03-09 10:45:00,59.4,30.2,29.34,SW,221,27.0,37.0,33,0.00,,,0.01,675.0,meteohub,2013-03-09 16:45:00,
2013-03-09 10:50:00,59.7,31.3,29.34,SW,226,32.0,42.0,34,0.00,,,0.01,684.0,meteohub,2013-03-09 16:50:00,
2013-03-09 10:55:00,59.7,28.2,29.33,SW,227,34.0,42.0,30,0.00,,,0.01,696.0,meteohub,2013-03-09 16:55:00,
2013-03-09 11:00:00,60.4,29.7,29.33,SW,225,35.0,42.0,31,0.00,,,0.01,707.0,meteohub,2013-03-09 17:00:00,
2013-03-09 11:05:00,60.4,27.1,29.33,SW,221,32.0,42.0,28,0.00,,,0.01,717.0,meteohub,2013-03-09 17:05:00,
2013-03-09 11:10:00,60.6,25.5,29.32,WSW,244,39.0,42.0,26,0.00,,,0.01,726.0,meteohub,2013-03-09 17:10:00,
2013-03-09 11:15:00,61.0,26.8,29.32,SW,222,36.0,42.0,27,0.00,,,0.01,742.0,meteohub,2013-03-09 17:15:00,
2013-03-09 11:20:00,60.8,26.6,29.32,SW,227,32.0,43.0,27,0.00,,,0.01,752.0,meteohub,2013-03-09 17:20:00,
2013-03-09 11:25:00,61.0,25.9,29.32,SW,233,30.0,45.0,26,0.00,,,0.01,758.0,meteohub,2013-03-09 17:25:00,
2013-03-09 11:31:00,61.0,25.9,29.31,SSW,213,29.0,45.0,26,0.00,,,0.01,770.0,meteohub,2013-03-09 17:31:00,
2013-03-09 11:36:00,61.5,25.3,29.31,SW,219,43.0,45.0,25,0.00,,,0.01,782.0,meteohub,2013-03-09 17:36:00,
2013-03-09 11:41:00,61.2,23.0,29.31,SW,218,37.0,44.0,23,0.00,,,0.01,789.0,meteohub,2013-03-09 17:41:00,
2013-03-09 11:46:00,61.2,21.9,29.31,SW,232,36.0,47.0,22,0.00,,,0.01,795.0,meteohub,2013-03-09 17:46:00,
2013-03-09 11:51:00,61.7,23.5,29.31,SW,224,28.0,47.0,23,0.00,,,0.01,805.0,meteohub,2013-03-09 17:51:00,
2013-03-09 11:56:00,61.2,23.0,29.30,SW,229,43.0,48.0,23,0.00,,,0.01,807.0,meteohub,2013-03-09 17:56:00,
2013-03-09 12:01:00,61.9,23.7,29.30,SW,225,31.0,48.0,23,0.00,,,0.01,816.0,meteohub,2013-03-09 18:01:00,
2013-03-09 12:06:00,61.9,23.7,29.30,SW,223,35.0,48.0,23,0.00,,,0.01,824.0,meteohub,2013-03-09 18:06:00,
2013-03-09 12:11:00,61.3,23.2,29.29,SW,224,43.0,46.0,23,0.00,,,0.01,721.0,meteohub,2013-03-09 18:11:00,
2013-03-09 12:16:00,61.9,23.7,29.29,SW,227,39.0,46.0,23,0.00,,,0.01,831.0,meteohub,2013-03-09 18:16:00,
2013-03-09 12:21:00,62.1,23.9,29.29,SW,236,38.0,48.0,23,0.00,,,0.01,835.0,meteohub,2013-03-09 18:21:00,
2013-03-09 12:26:00,61.9,24.6,29.28,WSW,237,37.0,48.0,24,0.00,,,0.01,837.0,meteohub,2013-03-09 18:26:00,
2013-03-09 12:31:00,62.1,23.9,29.28,SW,235,39.0,48.0,23,0.00,,,0.01,838.0,meteohub,2013-03-09 18:31:00,
2013-03-09 12:36:00,61.5,21.2,29.28,SW,221,37.0,44.0,21,0.00,,,0.01,842.0,meteohub,2013-03-09 18:36:00,
2013-03-09 12:41:00,61.5,20.1,29.28,SW,229,34.0,46.0,20,0.00,,,0.01,847.0,meteohub,2013-03-09 18:41:00,
2013-03-09 12:46:00,62.1,20.5,29.28,SW,226,40.0,46.0,20,0.00,,,0.01,851.0,meteohub,2013-03-09 18:46:00,
2013-03-09 12:51:00,62.6,21.0,29.28,SW,229,33.0,46.0,20,0.00,,,0.01,849.0,meteohub,2013-03-09 18:51:00,
2013-03-09 12:56:00,62.2,19.4,29.29,SW,222,35.0,46.0,19,0.00,,,0.01,847.0,meteohub,2013-03-09 18:56:00,
2013-03-09 13:01:00,62.1,20.5,29.28,WSW,239,37.0,46.0,20,0.00,,,0.01,847.0,meteohub,2013-03-09 19:01:00,
2013-03-09 13:07:00,62.2,19.4,29.28,SW,227,34.0,44.0,19,0.00,,,0.01,849.0,meteohub,2013-03-09 19:07:00,
2013-03-09 13:12:00,62.1,20.5,29.28,SW,229,36.0,44.0,20,0.00,,,0.01,842.0,meteohub,2013-03-09 19:12:00,
2013-03-09 13:17:00,62.1,16.7,29.29,SW,223,35.0,44.0,17,0.00,,,0.01,847.0,meteohub,2013-03-09 19:17:00,
2013-03-09 13:22:00,61.9,15.3,29.28,SW,229,34.0,45.0,16,0.00,,,0.01,842.0,meteohub,2013-03-09 19:22:00,
2013-03-09 13:27:00,62.2,18.1,29.28,WSW,238,31.0,45.0,18,0.00,,,0.01,835.0,meteohub,2013-03-09 19:27:00,
2013-03-09 13:32:00,62.8,19.9,29.28,SW,229,32.0,45.0,19,0.00,,,0.01,838.0,meteohub,2013-03-09 19:32:00,
2013-03-09 13:37:00,62.8,17.2,29.28,SW,231,34.0,42.0,17,0.00,,,0.01,840.0,meteohub,2013-03-09 19:37:00,
2013-03-09 13:42:00,62.8,17.2,29.28,SW,234,29.0,44.0,17,0.00,,,0.01,831.0,meteohub,2013-03-09 19:42:00,
2013-03-09 13:47:00,62.8,17.2,29.27,WSW,243,39.0,44.0,17,0.00,,,0.01,826.0,meteohub,2013-03-09 19:47:00,
2013-03-09 13:52:00,62.6,15.8,29.27,SW,236,37.0,44.0,16,0.00,,,0.01,826.0,meteohub,2013-03-09 19:52:00,
2013-03-09 13:57:00,62.2,15.4,29.27,WSW,241,33.0,42.0,16,0.00,,,0.01,821.0,meteohub,2013-03-09 19:57:00,
2013-03-09 14:02:00,63.0,14.5,29.26,SW,233,35.0,42.0,15,0.00,,,0.01,812.0,meteohub,2013-03-09 20:02:00,
2013-03-09 14:07:00,62.1,15.3,29.26,SW,225,32.0,42.0,16,0.00,,,0.01,809.0,meteohub,2013-03-09 20:07:00,
2013-03-09 14:12:00,62.8,16.0,29.26,WSW,237,36.0,42.0,16,0.00,,,0.01,802.0,meteohub,2013-03-09 20:12:00,
2013-03-09 14:17:00,62.8,14.4,29.26,SW,236,31.0,42.0,15,0.00,,,0.01,793.0,meteohub,2013-03-09 20:17:00,
2013-03-09 14:22:00,62.8,17.2,29.26,SW,225,33.0,39.0,17,0.00,,,0.01,788.0,meteohub,2013-03-09 20:22:00,
2013-03-09 14:27:00,63.0,14.5,29.26,SW,221,35.0,38.0,15,0.00,,,0.01,784.0,meteohub,2013-03-09 20:27:00,
2013-03-09 14:32:00,62.8,14.4,29.25,SW,227,30.0,42.0,15,0.00,,,0.01,754.0,meteohub,2013-03-09 20:32:00,
2013-03-09 14:37:00,62.8,11.1,29.26,SW,228,25.0,42.0,13,0.00,,,0.01,756.0,meteohub,2013-03-09 20:37:00,
2013-03-09 14:42:00,62.8,14.4,29.26,SW,236,30.0,42.0,15,0.00,,,0.01,724.0,meteohub,2013-03-09 20:42:00,
2013-03-09 14:47:00,62.6,14.4,29.26,WSW,243,34.0,41.0,15,0.00,,,0.01,703.0,meteohub,2013-03-09 20:47:00,
2013-03-09 14:52:00,62.4,14.2,29.26,SW,225,35.0,41.0,15,0.00,,,0.01,707.0,meteohub,2013-03-09 20:52:00,
2013-03-09 14:57:00,62.2,14.0,29.26,SW,225,32.0,41.0,15,0.00,,,0.01,689.0,meteohub,2013-03-09 20:57:00,
2013-03-09 15:02:00,63.0,14.5,29.26,SW,227,29.0,41.0,15,0.00,,,0.01,670.0,meteohub,2013-03-09 21:02:00,
2013-03-09 15:07:00,62.2,12.4,29.26,SW,233,41.0,41.0,14,0.00,,,0.01,684.0,meteohub,2013-03-09 21:07:00,
2013-03-09 15:13:00,62.1,12.2,29.26,SW,228,34.0,43.0,14,0.00,,,0.01,666.0,meteohub,2013-03-09 21:13:00,
2013-03-09 15:18:00,61.5,11.8,29.25,SW,217,33.0,43.0,14,0.00,,,0.01,664.0,meteohub,2013-03-09 21:18:00,
2013-03-09 15:23:00,61.7,12.0,29.26,WSW,241,31.0,43.0,14,0.00,,,0.01,621.0,meteohub,2013-03-09 21:23:00,
2013-03-09 15:28:00,61.7,13.6,29.26,SW,221,36.0,42.0,15,0.00,,,0.01,629.0,meteohub,2013-03-09 21:28:00,
2013-03-09 15:33:00,61.3,11.7,29.26,SW,235,34.0,41.0,14,0.00,,,0.01,631.0,meteohub,2013-03-09 21:33:00,
2013-03-09 15:38:00,61.5,13.5,29.26,SW,220,34.0,43.0,15,0.00,,,0.01,601.0,meteohub,2013-03-09 21:38:00,
2013-03-09 15:43:00,61.5,10.2,29.26,SW,223,34.0,43.0,13,0.00,,,0.01,601.0,meteohub,2013-03-09 21:43:00,
2013-03-09 15:48:00,61.3,13.3,29.26,SW,222,40.0,43.0,15,0.00,,,0.01,589.0,meteohub,2013-03-09 21:48:00,
2013-03-09 15:53:00,61.2,13.1,29.26,SW,229,25.0,42.0,15,0.00,,,0.01,580.0,meteohub,2013-03-09 21:53:00,
2013-03-09 15:58:00,61.2,11.5,29.26,SW,217,21.0,42.0,14,0.00,,,0.01,568.0,meteohub,2013-03-09 21:58:00,
2013-03-09 16:03:00,61.2,13.1,29.26,SW,219,27.0,42.0,15,0.00,,,0.01,534.0,meteohub,2013-03-09 22:03:00,
2013-03-09 16:08:00,61.2,13.1,29.26,SW,226,33.0,41.0,15,0.00,,,0.01,527.0,meteohub,2013-03-09 22:08:00,
2013-03-09 16:13:00,61.0,11.5,29.26,SW,232,33.0,42.0,14,0.00,,,0.01,512.0,meteohub,2013-03-09 22:13:00,
2013-03-09 16:18:00,61.0,11.5,29.26,SW,229,36.0,42.0,14,0.00,,,0.01,475.0,meteohub,2013-03-09 22:18:00,
2013-03-09 16:23:00,60.6,12.7,29.27,SW,230,29.0,42.0,15,0.00,,,0.01,454.0,meteohub,2013-03-09 22:23:00,
2013-03-09 16:28:00,60.4,10.9,29.27,SW,227,37.0,42.0,14,0.00,,,0.01,431.0,meteohub,2013-03-09 22:28:00,
2013-03-09 16:33:00,60.4,12.6,29.27,SW,232,35.0,42.0,15,0.00,,,0.01,439.0,meteohub,2013-03-09 22:33:00,
2013-03-09 16:39:00,60.3,12.4,29.27,SW,227,38.0,44.0,15,0.00,,,0.01,424.0,meteohub,2013-03-09 22:39:00,
2013-03-09 16:44:00,60.3,13.8,29.27,SW,222,42.0,44.0,16,0.00,,,0.01,411.0,meteohub,2013-03-09 22:44:00,
2013-03-09 16:49:00,59.7,10.4,29.28,SW,229,31.0,44.0,14,0.00,,,0.01,397.0,meteohub,2013-03-09 22:49:00,
2013-03-09 16:54:00,59.7,12.0,29.28,SW,229,33.0,44.0,15,0.00,,,0.01,388.0,meteohub,2013-03-09 22:54:00,
2013-03-09 16:59:00,59.5,11.8,29.28,SW,233,30.0,44.0,15,0.00,,,0.01,367.0,meteohub,2013-03-09 22:59:00,
2013-03-09 17:04:00,59.4,10.2,29.29,SW,221,32.0,43.0,14,0.00,,,0.01,341.0,meteohub,2013-03-09 23:04:00,
2013-03-09 17:09:00,59.2,10.0,29.29,SW,220,32.0,43.0,14,0.00,,,0.01,320.0,meteohub,2013-03-09 23:09:00,
2013-03-09 17:14:00,59.0,12.9,29.29,SW,223,24.0,42.0,16,0.00,,,0.01,316.0,meteohub,2013-03-09 23:14:00,
2013-03-09 17:19:00,59.0,11.5,29.31,West,259,20.0,42.0,15,0.00,,,0.01,294.0,meteohub,2013-03-09 23:19:00,
2013-03-09 17:24:00,54.9,32.7,29.33,WNW,300,21.0,38.0,43,0.00,,,0.01,230.0,meteohub,2013-03-09 23:24:00,
2013-03-09 17:29:00,51.3,34.7,29.31,NW,325,32.0,38.0,53,0.00,,,0.01,123.0,meteohub,2013-03-09 23:29:00,
2013-03-09 17:34:00,49.6,35.4,29.33,NW,315,32.0,35.0,58,0.00,,,0.01,148.0,meteohub,2013-03-09 23:34:00,
2013-03-09 17:39:00,49.3,36.0,29.34,WNW,300,24.0,37.0,60,0.00,,,0.01,174.0,meteohub,2013-03-09 23:39:00,
2013-03-09 17:44:00,48.7,36.0,29.35,WNW,302,19.0,37.0,61,0.00,,,0.01,171.0,meteohub,2013-03-09 23:44:00,
2013-03-09 17:49:00,48.6,36.1,29.36,WNW,302,25.0,36.0,62,0.00,,,0.01,181.0,meteohub,2013-03-09 23:49:00,
2013-03-09 17:54:00,48.0,36.5,29.37,NW,316,20.0,35.0,64,0.00,,,0.01,172.0,meteohub,2013-03-09 23:54:00,
2013-03-09 18:00:00,47.5,36.0,29.37,NW,325,26.0,33.0,64,0.00,,,0.01,137.0,meteohub,2013-03-10 00:00:00,
2013-03-09 18:05:00,46.8,35.6,29.38,NW,321,24.0,33.0,65,0.00,,,0.01,104.0,meteohub,2013-03-10 00:05:00,
2013-03-09 18:10:00,46.2,35.4,29.38,NW,306,17.0,32.0,66,0.00,,,0.01,81.0,meteohub,2013-03-10 00:10:00,
2013-03-09 18:15:00,45.9,35.6,29.39,NW,316,20.0,32.0,67,0.00,,,0.01,23.0,meteohub,2013-03-10 00:15:00,
2013-03-09 18:20:00,45.5,35.2,29.39,NNW,338,15.0,29.0,67,0.00,,,0.01,16.0,meteohub,2013-03-10 00:20:00,
2013-03-09 18:25:00,45.1,35.2,29.39,NW,323,23.0,27.0,68,0.00,,,0.01,12.0,meteohub,2013-03-10 00:25:00,
2013-03-09 18:30:00,45.0,35.4,29.40,NNW,328,18.0,27.0,69,0.00,,,0.01,9.0,meteohub,2013-03-10 00:30:00,
2013-03-09 18:35:00,44.8,35.2,29.41,NW,318,16.0,27.0,69,0.00,,,0.01,7.0,meteohub,2013-03-10 00:35:00,
2013-03-09 18:40:00,44.4,34.9,29.41,NW,316,20.0,26.0,69,0.00,,,0.01,0.0,meteohub,2013-03-10 00:40:00,
2013-03-09 18:45:00,44.2,34.7,29.42,NW,319,20.0,26.0,69,0.00,,,0.01,0.0,meteohub,2013-03-10 00:45:00,
2013-03-09 18:50:00,43.9,34.7,29.43,NW,313,18.0,25.0,70,0.00,,,0.01,0.0,meteohub,2013-03-10 00:50:00,
2013-03-09 18:55:00,43.7,34.9,29.43,NW,311,21.0,25.0,71,0.00,,,0.01,0.0,meteohub,2013-03-10 00:55:00,
2013-03-09 19:00:00,43.3,34.9,29.44,NW,308,20.0,25.0,72,0.00,,,0.01,0.0,meteohub,2013-03-10 01:00:00,
2013-03-09 19:06:00,43.0,34.5,29.45,NW,319,19.0,26.0,72,0.00,,,0.01,0.0,meteohub,2013-03-10 01:06:00,
2013-03-09 19:11:00,42.6,34.5,29.45,NNW,329,18.0,28.0,73,0.00,,,0.01,0.0,meteohub,2013-03-10 01:11:00,
2013-03-09 19:16:00,42.1,34.0,29.45,NW,326,22.0,28.0,73,0.00,,,0.01,0.0,meteohub,2013-03-10 01:16:00,
2013-03-09 19:21:00,41.9,33.8,29.47,NW,321,20.0,28.0,73,0.00,,,0.01,0.0,meteohub,2013-03-10 01:21:00,
2013-03-09 19:26:00,41.7,33.4,29.49,NW,312,21.0,28.0,72,0.00,,,0.01,0.0,meteohub,2013-03-10 01:26:00,
2013-03-09 19:31:00,41.5,33.3,29.50,WNW,290,28.0,28.0,72,0.00,,,0.01,0.0,meteohub,2013-03-10 01:31:00,
2013-03-09 19:36:00,41.2,32.2,29.50,WNW,291,25.0,30.0,70,0.00,,,0.01,0.0,meteohub,2013-03-10 01:36:00,
2013-03-09 19:41:00,40.1,31.8,29.49,WNW,302,26.0,32.0,72,0.00,,,0.01,0.0,meteohub,2013-03-10 01:41:00,
2013-03-09 19:46:00,39.9,32.0,29.48,NW,313,15.0,32.0,73,0.00,,,0.01,0.0,meteohub,2013-03-10 01:46:00,
2013-03-09 19:51:00,39.6,32.0,29.48,NW,309,22.0,32.0,74,0.00,,,0.01,0.0,meteohub,2013-03-10 01:51:00,
2013-03-09 19:56:00,39.0,32.4,29.48,NW,313,26.0,29.0,77,0.00,,,0.01,0.0,meteohub,2013-03-10 01:56:00,
2013-03-09 20:01:00,38.8,32.5,29.49,NW,317,21.0,27.0,78,0.00,,,0.01,0.0,meteohub,2013-03-10 02:01:00,
2013-03-09 20:06:00,38.7,32.4,29.49,NW,326,16.0,27.0,78,0.00,,,0.01,0.0,meteohub,2013-03-10 02:06:00,
2013-03-09 20:11:00,38.7,32.4,29.50,NW,309,14.0,27.0,78,0.00,,,0.01,0.0,meteohub,2013-03-10 02:11:00,
2013-03-09 20:16:00,38.7,32.0,29.50,NNW,329,20.0,27.0,77,0.00,,,0.01,0.0,meteohub,2013-03-10 02:16:00,
2013-03-09 20:21:00,38.7,32.0,29.51,NW,313,17.0,25.0,77,0.00,,,0.01,0.0,meteohub,2013-03-10 02:21:00,
2013-03-09 20:26:00,38.5,31.8,29.51,NW,307,13.0,25.0,77,0.00,,,0.01,0.0,meteohub,2013-03-10 02:26:00,
2013-03-09 20:31:00,38.1,30.9,29.52,NW,319,18.0,28.0,75,0.00,,,0.01,0.0,meteohub,2013-03-10 02:31:00,
2013-03-09 20:36:00,37.8,30.6,29.52,NW,313,22.0,35.0,75,0.00,,,0.01,0.0,meteohub,2013-03-10 02:36:00,
2013-03-09 20:41:00,37.8,30.6,29.53,WNW,288,15.0,35.0,75,0.00,,,0.01,0.0,meteohub,2013-03-10 02:41:00,
2013-03-09 20:47:00,37.6,30.4,29.54,WNW,294,15.0,32.0,75,0.00,,,0.01,0.0,meteohub,2013-03-10 02:47:00,
2013-03-09 20:52:00,37.8,30.6,29.55,NW,310,24.0,27.0,75,0.00,,,0.01,0.0,meteohub,2013-03-10 02:52:00,
2013-03-09 20:57:00,37.8,30.2,29.55,NW,313,14.0,26.0,74,0.00,,,0.01,0.0,meteohub,2013-03-10 02:57:00,
2013-03-09 21:02:00,37.8,29.8,29.55,NW,306,19.0,24.0,73,0.00,,,0.01,0.0,meteohub,2013-03-10 03:02:00,
2013-03-09 21:07:00,37.8,29.5,29.55,NW,325,20.0,27.0,72,0.00,,,0.01,0.0,meteohub,2013-03-10 03:07:00,
2013-03-09 21:12:00,37.8,29.5,29.55,NW,313,19.0,27.0,72,0.00,,,0.01,0.0,meteohub,2013-03-10 03:12:00,
2013-03-09 21:17:00,37.8,29.5,29.56,NW,313,19.0,27.0,72,0.00,,,0.01,0.0,meteohub,2013-03-10 03:17:00,
2013-03-09 21:22:00,37.8,29.5,29.56,NW,309,18.0,27.0,72,0.00,,,0.01,0.0,meteohub,2013-03-10 03:22:00,
2013-03-09 21:27:00,37.8,29.1,29.56,NW,309,27.0,27.0,71,0.00,,,0.01,0.0,meteohub,2013-03-10 03:27:00,
2013-03-09 21:32:00,37.6,29.1,29.56,NW,325,21.0,30.0,71,0.00,,,0.01,0.0,meteohub,2013-03-10 03:32:00,
2013-03-09 21:37:00,37.2,28.8,29.56,NW,306,21.0,30.0,71,0.00,,,0.01,0.0,meteohub,2013-03-10 03:37:00,
2013-03-09 21:42:00,37.2,28.8,29.57,NW,316,21.0,30.0,71,0.00,,,0.01,0.0,meteohub,2013-03-10 03:42:00,
2013-03-09 21:47:00,37.0,28.6,29.57,NW,311,19.0,29.0,71,0.00,,,0.01,0.0,meteohub,2013-03-10 03:47:00,
2013-03-09 21:52:00,37.0,28.6,29.57,NW,306,23.0,29.0,71,0.00,,,0.01,0.0,meteohub,2013-03-10 03:52:00,
2013-03-09 21:57:00,37.0,28.9,29.58,WNW,302,18.0,29.0,72,0.00,,,0.01,0.0,meteohub,2013-03-10 03:57:00,
2013-03-09 22:02:00,36.9,28.4,29.58,NW,319,23.0,29.0,71,0.00,,,0.01,0.0,meteohub,2013-03-10 04:02:00,
2013-03-09 22:07:00,36.9,28.4,29.58,NW,313,26.0,31.0,71,0.00,,,0.01,0.0,meteohub,2013-03-10 04:07:00,
2013-03-09 22:12:00,36.9,28.4,29.58,NNW,329,23.0,31.0,71,0.00,,,0.01,0.0,meteohub,2013-03-10 04:12:00,
2013-03-09 22:17:00,36.9,28.4,29.58,NW,316,22.0,31.0,71,0.00,,,0.01,0.0,meteohub,2013-03-10 04:17:00,
2013-03-09 22:22:00,36.7,28.2,29.58,NW,320,25.0,35.0,71,0.00,,,0.01,0.0,meteohub,2013-03-10 04:22:00,
2013-03-09 22:27:00,36.7,28.2,29.58,NW,325,24.0,35.0,71,0.00,,,0.01,0.0,meteohub,2013-03-10 04:27:00,
2013-03-09 22:32:00,36.7,28.2,29.59,NW,326,33.0,35.0,71,0.00,,,0.01,0.0,meteohub,2013-03-10 04:32:00,
2013-03-09 22:37:00,36.3,27.9,29.58,NNW,338,28.0,35.0,71,0.00,,,0.01,0.0,meteohub,2013-03-10 04:37:00,
2013-03-09 22:43:00,36.3,28.2,29.59,NNW,329,28.0,36.0,72,0.00,,,0.01,0.0,meteohub,2013-03-10 04:43:00,
2013-03-09 22:48:00,36.3,28.2,29.59,NNW,330,20.0,36.0,72,0.00,,,0.01,0.0,meteohub,2013-03-10 04:48:00,
2013-03-09 22:53:00,36.3,28.2,29.59,NW,324,27.0,36.0,72,0.00,,,0.01,0.0,meteohub,2013-03-10 04:53:00,
2013-03-09 22:58:00,36.3,28.2,29.59,NNW,327,22.0,34.0,72,0.00,,,0.01,0.0,meteohub,2013-03-10 04:58:00,
2013-03-09 23:00:00,36.3,28.2,29.59,NW,325,28.0,34.0,72,0.00,,,0.01,0.0,meteohub,2013-03-10 05:00:00,
2013-03-09 23:01:00,36.3,28.2,29.59,NNW,327,27.0,34.0,72,0.00,,,0.01,0.0,meteohub,2013-03-10 05:01:00,
2013-03-09 23:06:00,36.3,28.2,29.59,NNW,329,24.0,34.0,72,0.00,,,0.01,0.0,meteohub,2013-03-10 05:06:00,
2013-03-09 23:11:00,36.3,28.6,29.59,NNW,332,19.0,34.0,73,0.00,,,0.01,0.0,meteohub,2013-03-10 05:11:00,
2013-03-09 23:16:00,36.3,28.6,29.58,NNW,333,27.0,33.0,73,0.00,,,0.01,0.0,meteohub,2013-03-10 05:16:00,
2013-03-09 23:22:00,36.1,28.4,29.58,NNW,327,24.0,32.0,73,0.00,,,0.01,0.0,meteohub,2013-03-10 05:22:00,
2013-03-09 23:27:00,36.1,28.6,29.58,NW,316,21.0,33.0,74,0.00,,,0.01,0.0,meteohub,2013-03-10 05:27:00,
2013-03-09 23:32:00,35.8,29.8,29.59,NNW,327,21.0,34.0,79,0.00,,,0.01,0.0,meteohub,2013-03-10 05:32:00,
2013-03-09 23:37:00,35.2,30.4,29.59,NW,311,16.0,34.0,82,0.00,,,0.01,0.0,meteohub,2013-03-10 05:37:00,
2013-03-09 23:42:00,34.9,30.2,29.59,NW,312,14.0,34.0,83,0.00,,,0.01,0.0,meteohub,2013-03-10 05:42:00,
2013-03-09 23:47:00,34.9,30.6,29.59,NW,317,19.0,29.0,84,0.00,,,0.01,0.0,meteohub,2013-03-10 05:47:00,
2013-03-09 23:52:00,34.5,30.6,29.60,NW,316,14.0,25.0,85,0.00,,,0.01,0.0,meteohub,2013-03-10 05:52:00,
2013-03-09 23:57:00,34.3,30.9,29.60,NW,315,23.0,23.0,87,0.00,,,0.01,0.0,meteohub,2013-03-10 05:57:00,